Admire, KS (66830)

11:46 AM CDT on July 25, 2014 (GMT -0500)
Timmerman School Area (KKSEMPOR4) Elev 1214 ft | 38.43 °N, 96.22 °W | Change Station
Active Advisory: Heat Advisory

Current weather conditions updated 18 minutes ago

Clear
Clear
89.4 °F
Feels Like 94 °F
N
13.6
Wind Variable Wind from SSW
Gusts 17.4 mph

Today is forecast to be Much Warmer than yesterday.

Today
High -- | Low -- °F
--% Chance of Precip.
Yesterday
High -- | Low -- °F
Precip. -- in
6:19 AM 8:41 PM
Waning Crescent, 1% visible
Pressure 29.84 in
Visibility 10.0 miles
Clouds Clear
Heat Index 94 °F
Dew Point 70 °F
Humidity 52%
Rainfall 0.00 in
Snow Depth Not available.
UV 8 out of 12
Pollen 7.10 out of 12
Air Quality Not available.
Flu Activity Not available.
METAR KEMP 251553Z AUTO 21018KT 10SM CLR 32/21 A2987 RMK AO2 PK WND 21028/1511 SLP103 T03170206

More Conditions Fewer Conditions

Pressure 29.84 in
Visibility 10.0 miles
Clouds Clear
Heat Index 94 °F
Dew Point 70 °F
Humidity 52%
Rainfall 0.00 in
Snow Depth Not available.
UV 8 out of 12
Pollen 7.10 out of 12
Air Quality Not available.
Flu Activity Not available.
METAR KEMP 251553Z AUTO 21018KT 10SM CLR 32/21 A2987 RMK AO2 PK WND 21028/1511 SLP103 T03170206

More Conditions Fewer Conditions

10-Day Weather Forecast

Almanac

Astronomy

Jul. 25, 2014 Rise Set
Actual Time 6:19 AM CDT 8:41 PM CDT
Civil Twilight 5:49 AM CDT 9:11 PM CDT
Nautical Twilight 5:12 AM CDT 9:48 PM CDT
Astronomical Twilight 4:31 AM CDT 10:29 PM CDT
Moon 5:19 AM CDT 7:39 PM CDT
Length of Visible Light 15h 21m
Length of Day
14h 21m
Tomorrow will be 1m 42s shorter.
Waning Crescent, 1% of the Moon is Illuminated
Today
Waning Crescent
Jul 26
New
Aug 3
First Quarter
Aug 10
Full
Aug 17
Last Quarter

Today's Extremes

State Highs State Lows

Community

WunderPhotos

Upload Photos

1,737,363 photos uploaded!

WunderBlogs® & News

Nearby

Snow Depth

Station Depth Elevation
No new snow has been reported.

Earthquake Activity

City Distance Mag. Time & Date
Harper, Kansas 140 miles 3.0 7:24 PM CDT
2014-07-19
Minimum magnitude displayed is 2.5.

Coastal Water Temperatures

Place Temperature
No Stations Reporting

Nearby Weather Stations

Station Location Temp. Heat Index Dew Point Humidity Wind Precip. Elev Updated Type
Timmerman School Area, Emporia, KS 89.4 °F 94 °F 70 °F 52% SSW  at  13.6 mph 0.00 in / hr 1214 ft 11:28 AM CDT Rapid Fire
East Emporia Kansas, Emporia, KS 92.3 °F 101 °F 73 °F 53% SSW  at  9.9 mph - / hr 1106 ft 11:36 AM CDT Normal
Fly over Country, Burlingame, KS 90.4 °F 98 °F 72 °F 56% SW  at  10.0 mph 0.00 in / hr 1063 ft 11:46 AM CDT Rapid Fire
T-K Weather Station West Hartford, Kansa, Hartford, KS 94.1 °F 104 °F 74 °F 52% ESE  at  11.4 mph - / hr 1129 ft 11:40 AM CDT Normal

Show More Stations Show Fewer Stations